sensor_id;sensor_type;location;lat;lon;timestamp;P1;durP1;ratioP1;P2;durP2;ratioP2
9898;SDS011;4988;49.238;6.698;2023-01-05T00:02:08;2.10;;;2.00;;
9898;SDS011;4988;49.238;6.698;2023-01-05T00:04:33;3.50;;;2.10;;
9898;SDS011;4988;49.238;6.698;2023-01-05T00:06:59;3.93;;;2.27;;
9898;SDS011;4988;49.238;6.698;2023-01-05T00:09:24;1.60;;;1.40;;
9898;SDS011;4988;49.238;6.698;2023-01-05T00:11:49;1.70;;;1.60;;
9898;SDS011;4988;49.238;6.698;2023-01-05T00:14:33;1.60;;;1.50;;
9898;SDS011;4988;49.238;6.698;2023-01-05T00:17:21;1.70;;;1.60;;
9898;SDS011;4988;49.238;6.698;2023-01-05T00:20:09;1.70;;;1.60;;
9898;SDS011;4988;49.238;6.698;2023-01-05T00:22:57;2.27;;;1.70;;
9898;SDS011;4988;49.238;6.698;2023-01-05T00:25:26;1.73;;;1.63;;
9898;SDS011;4988;49.238;6.698;2023-01-05T00:27:53;1.60;;;1.50;;
9898;SDS011;4988;49.238;6.698;2023-01-05T00:30:23;2.10;;;1.60;;
9898;SDS011;4988;49.238;6.698;2023-01-05T00:32:50;1.80;;;1.70;;
9898;SDS011;4988;49.238;6.698;2023-01-05T00:35:16;2.67;;;1.70;;
9898;SDS011;4988;49.238;6.698;2023-01-05T00:37:42;1.80;;;1.70;;
9898;SDS011;4988;49.238;6.698;2023-01-05T00:40:10;1.80;;;1.70;;
9898;SDS011;4988;49.238;6.698;2023-01-05T00:42:37;2.20;;;2.00;;
9898;SDS011;4988;49.238;6.698;2023-01-05T00:45:03;1.60;;;1.50;;
9898;SDS011;4988;49.238;6.698;2023-01-05T00:47:31;1.60;;;1.50;;
9898;SDS011;4988;49.238;6.698;2023-01-05T00:49:56;1.63;;;1.53;;
9898;SDS011;4988;49.238;6.698;2023-01-05T00:52:21;1.60;;;1.50;;
9898;SDS011;4988;49.238;6.698;2023-01-05T00:54:47;1.60;;;1.50;;
9898;SDS011;4988;49.238;6.698;2023-01-05T00:57:12;1.60;;;1.50;;
9898;SDS011;4988;49.238;6.698;2023-01-05T00:59:38;1.77;;;1.67;;
9898;SDS011;4988;49.238;6.698;2023-01-05T01:02:04;2.13;;;1.60;;
9898;SDS011;4988;49.238;6.698;2023-01-05T01:04:30;1.80;;;1.70;;
9898;SDS011;4988;49.238;6.698;2023-01-05T01:06:56;1.77;;;1.67;;
9898;SDS011;4988;49.238;6.698;2023-01-05T01:09:22;2.03;;;1.87;;
9898;SDS011;4988;49.238;6.698;2023-01-05T01:11:47;1.83;;;1.70;;
9898;SDS011;4988;49.238;6.698;2023-01-05T01:14:12;1.63;;;1.53;;
9898;SDS011;4988;49.238;6.698;2023-01-05T01:16:39;1.80;;;1.70;;
9898;SDS011;4988;49.238;6.698;2023-01-05T01:19:06;1.70;;;1.60;;
9898;SDS011;4988;49.238;6.698;2023-01-05T01:21:32;2.10;;;1.70;;
9898;SDS011;4988;49.238;6.698;2023-01-05T01:23:57;2.17;;;1.87;;
9898;SDS011;4988;49.238;6.698;2023-01-05T01:26:23;3.07;;;1.60;;
9898;SDS011;4988;49.238;6.698;2023-01-05T01:28:48;3.13;;;1.93;;
9898;SDS011;4988;49.238;6.698;2023-01-05T01:31:14;2.87;;;1.57;;
9898;SDS011;4988;49.238;6.698;2023-01-05T01:33:39;1.50;;;1.40;;
9898;SDS011;4988;49.238;6.698;2023-01-05T01:36:05;3.63;;;1.70;;
9898;SDS011;4988;49.238;6.698;2023-01-05T01:38:32;1.90;;;1.80;;
9898;SDS011;4988;49.238;6.698;2023-01-05T01:40:58;1.97;;;1.87;;
9898;SDS011;4988;49.238;6.698;2023-01-05T01:43:43;1.73;;;1.63;;
9898;SDS011;4988;49.238;6.698;2023-01-05T01:46:17;1.63;;;1.53;;
9898;SDS011;4988;49.238;6.698;2023-01-05T01:49:00;1.67;;;1.53;;
9898;SDS011;4988;49.238;6.698;2023-01-05T01:51:31;1.70;;;1.60;;
9898;SDS011;4988;49.238;6.698;2023-01-05T01:54:00;1.80;;;1.70;;
9898;SDS011;4988;49.238;6.698;2023-01-05T01:56:31;1.80;;;1.70;;
9898;SDS011;4988;49.238;6.698;2023-01-05T01:58:59;2.93;;;1.60;;
9898;SDS011;4988;49.238;6.698;2023-01-05T02:01:24;1.60;;;1.50;;
9898;SDS011;4988;49.238;6.698;2023-01-05T02:03:50;1.50;;;1.40;;
9898;SDS011;4988;49.238;6.698;2023-01-05T02:06:15;1.83;;;1.50;;
9898;SDS011;4988;49.238;6.698;2023-01-05T02:08:41;1.73;;;1.63;;
9898;SDS011;4988;49.238;6.698;2023-01-05T02:14:12;1.60;;;1.50;;
9898;SDS011;4988;49.238;6.698;2023-01-05T02:30:47;3.07;;;1.93;;
9898;SDS011;4988;49.238;6.698;2023-01-05T02:36:33;2.53;;;1.97;;
9898;SDS011;4988;49.238;6.698;2023-01-05T02:39:04;3.20;;;1.87;;
9898;SDS011;4988;49.238;6.698;2023-01-05T02:44:08;4.43;;;1.97;;
9898;SDS011;4988;49.238;6.698;2023-01-05T02:46:34;3.47;;;1.87;;
9898;SDS011;4988;49.238;6.698;2023-01-05T02:49:00;3.60;;;2.17;;
9898;SDS011;4988;49.238;6.698;2023-01-05T02:51:30;7.83;;;2.40;;
9898;SDS011;4988;49.238;6.698;2023-01-05T02:56:45;8.43;;;2.30;;
9898;SDS011;4988;49.238;6.698;2023-01-05T02:59:21;7.03;;;2.30;;
9898;SDS011;4988;49.238;6.698;2023-01-05T03:01:56;10.17;;;2.83;;
9898;SDS011;4988;49.238;6.698;2023-01-05T03:04:26;9.87;;;3.10;;
9898;SDS011;4988;49.238;6.698;2023-01-05T03:07:01;13.33;;;2.77;;
9898;SDS011;4988;49.238;6.698;2023-01-05T03:09:31;9.43;;;2.70;;
9898;SDS011;4988;49.238;6.698;2023-01-05T03:12:06;12.37;;;2.90;;
9898;SDS011;4988;49.238;6.698;2023-01-05T03:14:51;8.00;;;2.67;;
9898;SDS011;4988;49.238;6.698;2023-01-05T03:17:31;10.10;;;2.63;;
9898;SDS011;4988;49.238;6.698;2023-01-05T03:20:00;7.77;;;3.17;;
9898;SDS011;4988;49.238;6.698;2023-01-05T03:22:30;10.40;;;2.50;;
9898;SDS011;4988;49.238;6.698;2023-01-05T03:25:15;14.30;;;3.50;;
9898;SDS011;4988;49.238;6.698;2023-01-05T03:28:03;15.23;;;2.83;;
9898;SDS011;4988;49.238;6.698;2023-01-05T03:30:56;9.43;;;2.60;;
9898;SDS011;4988;49.238;6.698;2023-01-05T03:34:02;7.80;;;2.33;;
9898;SDS011;4988;49.238;6.698;2023-01-05T03:36:58;16.87;;;3.03;;
9898;SDS011;4988;49.238;6.698;2023-01-05T03:39:28;13.00;;;2.97;;
9898;SDS011;4988;49.238;6.698;2023-01-05T03:41:55;12.53;;;3.13;;
9898;SDS011;4988;49.238;6.698;2023-01-05T03:44:22;13.27;;;3.07;;
9898;SDS011;4988;49.238;6.698;2023-01-05T03:46:48;9.93;;;2.90;;
9898;SDS011;4988;49.238;6.698;2023-01-05T03:49:15;10.90;;;3.10;;
9898;SDS011;4988;49.238;6.698;2023-01-05T03:51:41;14.77;;;2.90;;
9898;SDS011;4988;49.238;6.698;2023-01-05T03:54:07;15.40;;;3.17;;
9898;SDS011;4988;49.238;6.698;2023-01-05T03:56:32;12.97;;;2.80;;
9898;SDS011;4988;49.238;6.698;2023-01-05T03:58:57;8.23;;;2.87;;
9898;SDS011;4988;49.238;6.698;2023-01-05T04:01:22;15.13;;;3.13;;
9898;SDS011;4988;49.238;6.698;2023-01-05T04:03:48;17.97;;;3.13;;
9898;SDS011;4988;49.238;6.698;2023-01-05T04:06:14;9.70;;;2.60;;
9898;SDS011;4988;49.238;6.698;2023-01-05T04:08:39;14.33;;;3.57;;
9898;SDS011;4988;49.238;6.698;2023-01-05T04:13:36;12.03;;;2.70;;
9898;SDS011;4988;49.238;6.698;2023-01-05T04:16:01;16.67;;;3.10;;
9898;SDS011;4988;49.238;6.698;2023-01-05T04:18:27;12.10;;;3.30;;
9898;SDS011;4988;49.238;6.698;2023-01-05T04:20:52;10.40;;;3.07;;
9898;SDS011;4988;49.238;6.698;2023-01-05T04:23:17;12.33;;;3.10;;
9898;SDS011;4988;49.238;6.698;2023-01-05T04:25:44;7.97;;;3.13;;
9898;SDS011;4988;49.238;6.698;2023-01-05T04:28:10;13.40;;;2.83;;
9898;SDS011;4988;49.238;6.698;2023-01-05T04:30:36;8.87;;;2.90;;
9898;SDS011;4988;49.238;6.698;2023-01-05T04:33:01;15.97;;;3.20;;
9898;SDS011;4988;49.238;6.698;2023-01-05T04:35:26;12.77;;;2.90;;
9898;SDS011;4988;49.238;6.698;2023-01-05T04:37:52;16.67;;;2.87;;
9898;SDS011;4988;49.238;6.698;2023-01-05T04:40:17;12.90;;;3.07;;
9898;SDS011;4988;49.238;6.698;2023-01-05T04:42:42;9.97;;;2.70;;
9898;SDS011;4988;49.238;6.698;2023-01-05T04:45:08;12.17;;;2.80;;
9898;SDS011;4988;49.238;6.698;2023-01-05T04:47:34;11.37;;;2.93;;
9898;SDS011;4988;49.238;6.698;2023-01-05T04:49:59;19.03;;;3.83;;
9898;SDS011;4988;49.238;6.698;2023-01-05T04:52:24;10.73;;;2.73;;
9898;SDS011;4988;49.238;6.698;2023-01-05T04:54:50;13.30;;;2.90;;
9898;SDS011;4988;49.238;6.698;2023-01-05T04:57:15;12.23;;;2.90;;
9898;SDS011;4988;49.238;6.698;2023-01-05T04:59:40;14.00;;;2.80;;
9898;SDS011;4988;49.238;6.698;2023-01-05T05:02:06;19.00;;;2.83;;
9898;SDS011;4988;49.238;6.698;2023-01-05T05:04:32;11.43;;;2.90;;
9898;SDS011;4988;49.238;6.698;2023-01-05T05:06:57;13.93;;;3.00;;
9898;SDS011;4988;49.238;6.698;2023-01-05T05:09:23;13.77;;;2.90;;
9898;SDS011;4988;49.238;6.698;2023-01-05T05:11:48;10.63;;;2.60;;
9898;SDS011;4988;49.238;6.698;2023-01-05T05:14:13;9.80;;;2.50;;
9898;SDS011;4988;49.238;6.698;2023-01-05T05:16:39;12.30;;;3.00;;
9898;SDS011;4988;49.238;6.698;2023-01-05T05:19:04;9.50;;;2.83;;
9898;SDS011;4988;49.238;6.698;2023-01-05T05:21:29;13.10;;;3.17;;
9898;SDS011;4988;49.238;6.698;2023-01-05T05:23:54;12.90;;;3.17;;
9898;SDS011;4988;49.238;6.698;2023-01-05T05:26:20;9.77;;;2.80;;
9898;SDS011;4988;49.238;6.698;2023-01-05T05:28:45;9.97;;;3.10;;
9898;SDS011;4988;49.238;6.698;2023-01-05T05:31:10;16.57;;;3.43;;
9898;SDS011;4988;49.238;6.698;2023-01-05T05:33:36;13.10;;;3.27;;
9898;SDS011;4988;49.238;6.698;2023-01-05T05:36:02;9.13;;;3.10;;
9898;SDS011;4988;49.238;6.698;2023-01-05T05:38:28;12.00;;;3.07;;
9898;SDS011;4988;49.238;6.698;2023-01-05T05:40:53;17.00;;;3.17;;
9898;SDS011;4988;49.238;6.698;2023-01-05T05:43:19;10.00;;;3.20;;
9898;SDS011;4988;49.238;6.698;2023-01-05T05:45:44;17.97;;;4.10;;
9898;SDS011;4988;49.238;6.698;2023-01-05T05:48:09;16.07;;;3.47;;
9898;SDS011;4988;49.238;6.698;2023-01-05T05:50:35;12.40;;;3.37;;
9898;SDS011;4988;49.238;6.698;2023-01-05T05:53:00;11.10;;;2.70;;
9898;SDS011;4988;49.238;6.698;2023-01-05T05:55:25;13.83;;;2.93;;
9898;SDS011;4988;49.238;6.698;2023-01-05T05:57:51;15.23;;;4.03;;
9898;SDS011;4988;49.238;6.698;2023-01-05T06:00:16;18.63;;;3.53;;
9898;SDS011;4988;49.238;6.698;2023-01-05T06:02:42;14.70;;;3.30;;
9898;SDS011;4988;49.238;6.698;2023-01-05T06:05:07;13.77;;;3.43;;
9898;SDS011;4988;49.238;6.698;2023-01-05T06:07:33;19.67;;;4.20;;
9898;SDS011;4988;49.238;6.698;2023-01-05T06:09:58;19.87;;;4.17;;
9898;SDS011;4988;49.238;6.698;2023-01-05T06:12:23;12.80;;;3.27;;
9898;SDS011;4988;49.238;6.698;2023-01-05T06:14:49;12.27;;;3.20;;
9898;SDS011;4988;49.238;6.698;2023-01-05T06:17:14;14.60;;;2.83;;
9898;SDS011;4988;49.238;6.698;2023-01-05T06:19:39;11.80;;;3.23;;
9898;SDS011;4988;49.238;6.698;2023-01-05T06:22:05;24.43;;;3.60;;
9898;SDS011;4988;49.238;6.698;2023-01-05T06:24:30;16.43;;;3.67;;
9898;SDS011;4988;49.238;6.698;2023-01-05T06:26:55;13.20;;;3.40;;
9898;SDS011;4988;49.238;6.698;2023-01-05T06:29:21;16.07;;;2.83;;
9898;SDS011;4988;49.238;6.698;2023-01-05T06:31:46;21.07;;;3.47;;
9898;SDS011;4988;49.238;6.698;2023-01-05T06:34:11;12.50;;;3.10;;
9898;SDS011;4988;49.238;6.698;2023-01-05T06:36:37;17.63;;;3.70;;
9898;SDS011;4988;49.238;6.698;2023-01-05T06:39:02;15.90;;;2.93;;
9898;SDS011;4988;49.238;6.698;2023-01-05T06:41:27;19.63;;;3.83;;
9898;SDS011;4988;49.238;6.698;2023-01-05T06:43:53;13.47;;;3.03;;
9898;SDS011;4988;49.238;6.698;2023-01-05T06:46:18;21.23;;;3.33;;
9898;SDS011;4988;49.238;6.698;2023-01-05T06:48:43;16.30;;;3.13;;
9898;SDS011;4988;49.238;6.698;2023-01-05T06:51:09;15.00;;;3.33;;
9898;SDS011;4988;49.238;6.698;2023-01-05T06:53:34;17.77;;;3.17;;
9898;SDS011;4988;49.238;6.698;2023-01-05T06:55:59;14.80;;;3.27;;
9898;SDS011;4988;49.238;6.698;2023-01-05T06:58:25;15.80;;;3.70;;
9898;SDS011;4988;49.238;6.698;2023-01-05T07:00:52;20.13;;;3.20;;
9898;SDS011;4988;49.238;6.698;2023-01-05T07:03:18;17.00;;;3.53;;
9898;SDS011;4988;49.238;6.698;2023-01-05T07:05:43;10.37;;;3.07;;
9898;SDS011;4988;49.238;6.698;2023-01-05T07:08:09;17.20;;;3.27;;
9898;SDS011;4988;49.238;6.698;2023-01-05T07:10:34;16.30;;;3.27;;
9898;SDS011;4988;49.238;6.698;2023-01-05T07:12:59;16.47;;;2.90;;
9898;SDS011;4988;49.238;6.698;2023-01-05T07:15:25;18.53;;;3.17;;
9898;SDS011;4988;49.238;6.698;2023-01-05T07:17:50;17.80;;;3.43;;
9898;SDS011;4988;49.238;6.698;2023-01-05T07:20:15;15.13;;;3.10;;
9898;SDS011;4988;49.238;6.698;2023-01-05T07:22:40;12.50;;;2.87;;
9898;SDS011;4988;49.238;6.698;2023-01-05T07:25:06;17.43;;;3.50;;
9898;SDS011;4988;49.238;6.698;2023-01-05T07:27:32;18.93;;;3.73;;
9898;SDS011;4988;49.238;6.698;2023-01-05T07:29:58;21.00;;;3.47;;
9898;SDS011;4988;49.238;6.698;2023-01-05T07:32:23;22.47;;;3.40;;
9898;SDS011;4988;49.238;6.698;2023-01-05T07:34:48;18.67;;;3.53;;
9898;SDS011;4988;49.238;6.698;2023-01-05T07:37:13;18.23;;;3.40;;
9898;SDS011;4988;49.238;6.698;2023-01-05T07:39:39;17.83;;;4.17;;
9898;SDS011;4988;49.238;6.698;2023-01-05T07:42:04;19.27;;;3.90;;
9898;SDS011;4988;49.238;6.698;2023-01-05T07:44:29;14.10;;;2.70;;
9898;SDS011;4988;49.238;6.698;2023-01-05T07:46:55;18.03;;;3.57;;
9898;SDS011;4988;49.238;6.698;2023-01-05T07:49:20;21.87;;;3.80;;
9898;SDS011;4988;49.238;6.698;2023-01-05T07:51:45;23.07;;;4.07;;
9898;SDS011;4988;49.238;6.698;2023-01-05T07:54:11;20.37;;;3.50;;
9898;SDS011;4988;49.238;6.698;2023-01-05T07:56:36;19.20;;;3.30;;
9898;SDS011;4988;49.238;6.698;2023-01-05T07:59:01;13.53;;;3.60;;
9898;SDS011;4988;49.238;6.698;2023-01-05T08:01:27;19.70;;;3.90;;
9898;SDS011;4988;49.238;6.698;2023-01-05T08:03:52;17.60;;;3.47;;
9898;SDS011;4988;49.238;6.698;2023-01-05T08:06:18;20.23;;;4.00;;
9898;SDS011;4988;49.238;6.698;2023-01-05T08:08:44;15.90;;;3.50;;
9898;SDS011;4988;49.238;6.698;2023-01-05T08:11:11;24.90;;;4.03;;
9898;SDS011;4988;49.238;6.698;2023-01-05T08:13:41;20.43;;;3.80;;
9898;SDS011;4988;49.238;6.698;2023-01-05T08:16:27;18.33;;;4.10;;
9898;SDS011;4988;49.238;6.698;2023-01-05T08:18:56;18.07;;;3.80;;
9898;SDS011;4988;49.238;6.698;2023-01-05T08:21:22;28.30;;;3.50;;
9898;SDS011;4988;49.238;6.698;2023-01-05T08:23:48;15.80;;;3.80;;
9898;SDS011;4988;49.238;6.698;2023-01-05T08:26:17;17.63;;;3.33;;
9898;SDS011;4988;49.238;6.698;2023-01-05T08:28:45;29.00;;;3.80;;
9898;SDS011;4988;49.238;6.698;2023-01-05T08:31:14;26.63;;;3.60;;
9898;SDS011;4988;49.238;6.698;2023-01-05T08:33:42;22.83;;;3.73;;
9898;SDS011;4988;49.238;6.698;2023-01-05T08:36:08;22.20;;;4.10;;
9898;SDS011;4988;49.238;6.698;2023-01-05T08:38:35;18.70;;;3.77;;
9898;SDS011;4988;49.238;6.698;2023-01-05T08:41:01;20.07;;;3.13;;
9898;SDS011;4988;49.238;6.698;2023-01-05T08:43:26;27.60;;;3.87;;
9898;SDS011;4988;49.238;6.698;2023-01-05T08:45:52;21.77;;;3.90;;
9898;SDS011;4988;49.238;6.698;2023-01-05T08:48:17;21.93;;;3.87;;
9898;SDS011;4988;49.238;6.698;2023-01-05T08:50:43;16.33;;;4.43;;
9898;SDS011;4988;49.238;6.698;2023-01-05T08:53:08;26.57;;;4.10;;
9898;SDS011;4988;49.238;6.698;2023-01-05T08:55:34;16.27;;;3.53;;
9898;SDS011;4988;49.238;6.698;2023-01-05T08:57:59;20.97;;;4.10;;
9898;SDS011;4988;49.238;6.698;2023-01-05T09:00:24;23.57;;;4.93;;
9898;SDS011;4988;49.238;6.698;2023-01-05T09:02:50;23.07;;;4.07;;
9898;SDS011;4988;49.238;6.698;2023-01-05T09:05:15;25.27;;;4.63;;
9898;SDS011;4988;49.238;6.698;2023-01-05T09:07:40;21.17;;;4.70;;
9898;SDS011;4988;49.238;6.698;2023-01-05T09:10:06;20.87;;;4.43;;
9898;SDS011;4988;49.238;6.698;2023-01-05T09:12:36;23.00;;;3.90;;
9898;SDS011;4988;49.238;6.698;2023-01-05T09:15:04;20.60;;;3.60;;
9898;SDS011;4988;49.238;6.698;2023-01-05T09:17:31;20.87;;;3.80;;
9898;SDS011;4988;49.238;6.698;2023-01-05T09:19:57;21.37;;;5.50;;
9898;SDS011;4988;49.238;6.698;2023-01-05T09:22:22;21.67;;;4.03;;
9898;SDS011;4988;49.238;6.698;2023-01-05T09:24:47;17.27;;;3.47;;
9898;SDS011;4988;49.238;6.698;2023-01-05T09:27:13;23.03;;;3.50;;
9898;SDS011;4988;49.238;6.698;2023-01-05T09:29:38;23.23;;;5.37;;
9898;SDS011;4988;49.238;6.698;2023-01-05T09:32:04;20.17;;;3.87;;
9898;SDS011;4988;49.238;6.698;2023-01-05T09:34:30;15.80;;;3.90;;
9898;SDS011;4988;49.238;6.698;2023-01-05T09:36:55;14.43;;;3.77;;
9898;SDS011;4988;49.238;6.698;2023-01-05T09:39:20;19.53;;;4.20;;
9898;SDS011;4988;49.238;6.698;2023-01-05T09:41:47;21.20;;;3.77;;
9898;SDS011;4988;49.238;6.698;2023-01-05T09:44:35;20.13;;;3.40;;
9898;SDS011;4988;49.238;6.698;2023-01-05T09:50:04;26.17;;;4.47;;
9898;SDS011;4988;49.238;6.698;2023-01-05T09:52:31;19.73;;;3.63;;
9898;SDS011;4988;49.238;6.698;2023-01-05T09:54:58;20.10;;;3.57;;
9898;SDS011;4988;49.238;6.698;2023-01-05T09:57:24;21.23;;;4.23;;
9898;SDS011;4988;49.238;6.698;2023-01-05T09:59:53;15.77;;;3.67;;
9898;SDS011;4988;49.238;6.698;2023-01-05T10:02:43;17.10;;;3.23;;
9898;SDS011;4988;49.238;6.698;2023-01-05T10:05:16;13.40;;;3.27;;
9898;SDS011;4988;49.238;6.698;2023-01-05T10:07:44;14.87;;;3.60;;
9898;SDS011;4988;49.238;6.698;2023-01-05T10:12:57;13.17;;;3.10;;
9898;SDS011;4988;49.238;6.698;2023-01-05T10:15:29;19.73;;;3.67;;
9898;SDS011;4988;49.238;6.698;2023-01-05T10:18:01;19.50;;;4.30;;
9898;SDS011;4988;49.238;6.698;2023-01-05T10:20:38;18.87;;;3.87;;
9898;SDS011;4988;49.238;6.698;2023-01-05T10:26:30;18.87;;;3.57;;
9898;SDS011;4988;49.238;6.698;2023-01-05T10:29:09;21.33;;;3.83;;
9898;SDS011;4988;49.238;6.698;2023-01-05T10:34:22;16.67;;;3.90;;
9898;SDS011;4988;49.238;6.698;2023-01-05T10:37:22;21.57;;;3.53;;
9898;SDS011;4988;49.238;6.698;2023-01-05T10:45:54;18.77;;;3.73;;
9898;SDS011;4988;49.238;6.698;2023-01-05T10:48:21;15.97;;;3.87;;
9898;SDS011;4988;49.238;6.698;2023-01-05T10:50:51;19.87;;;3.93;;
9898;SDS011;4988;49.238;6.698;2023-01-05T10:53:22;23.27;;;3.40;;
9898;SDS011;4988;49.238;6.698;2023-01-05T10:58:25;21.17;;;3.67;;
9898;SDS011;4988;49.238;6.698;2023-01-05T11:00:57;19.83;;;3.63;;
9898;SDS011;4988;49.238;6.698;2023-01-05T11:03:43;15.27;;;3.20;;
9898;SDS011;4988;49.238;6.698;2023-01-05T11:06:18;18.90;;;3.57;;
9898;SDS011;4988;49.238;6.698;2023-01-05T11:08:46;22.60;;;4.10;;
9898;SDS011;4988;49.238;6.698;2023-01-05T11:11:13;18.53;;;4.17;;
9898;SDS011;4988;49.238;6.698;2023-01-05T11:13:46;26.40;;;5.00;;
9898;SDS011;4988;49.238;6.698;2023-01-05T11:16:14;24.20;;;4.10;;
9898;SDS011;4988;49.238;6.698;2023-01-05T11:19:03;20.77;;;4.20;;
9898;SDS011;4988;49.238;6.698;2023-01-05T11:24:00;19.60;;;3.73;;
9898;SDS011;4988;49.238;6.698;2023-01-05T11:26:31;25.83;;;4.17;;
9898;SDS011;4988;49.238;6.698;2023-01-05T11:31:37;21.73;;;4.00;;
9898;SDS011;4988;49.238;6.698;2023-01-05T11:36:54;16.87;;;3.73;;
9898;SDS011;4988;49.238;6.698;2023-01-05T11:39:41;23.73;;;4.10;;
9898;SDS011;4988;49.238;6.698;2023-01-05T11:42:18;18.93;;;5.03;;
9898;SDS011;4988;49.238;6.698;2023-01-05T11:44:48;18.20;;;4.10;;
9898;SDS011;4988;49.238;6.698;2023-01-05T11:47:21;11.27;;;2.87;;
9898;SDS011;4988;49.238;6.698;2023-01-05T11:50:02;23.93;;;4.13;;
9898;SDS011;4988;49.238;6.698;2023-01-05T11:52:39;15.73;;;4.10;;
9898;SDS011;4988;49.238;6.698;2023-01-05T11:57:49;12.93;;;3.33;;
9898;SDS011;4988;49.238;6.698;2023-01-05T12:08:17;19.03;;;3.50;;
9898;SDS011;4988;49.238;6.698;2023-01-05T12:10:52;15.47;;;3.10;;
9898;SDS011;4988;49.238;6.698;2023-01-05T12:19:23;15.43;;;3.20;;
9898;SDS011;4988;49.238;6.698;2023-01-05T12:24:45;10.83;;;2.97;;
9898;SDS011;4988;49.238;6.698;2023-01-05T12:27:26;16.03;;;3.20;;
9898;SDS011;4988;49.238;6.698;2023-01-05T12:41:16;21.37;;;3.33;;
9898;SDS011;4988;49.238;6.698;2023-01-05T12:49:31;17.83;;;3.17;;
9898;SDS011;4988;49.238;6.698;2023-01-05T12:54:57;23.77;;;4.40;;
9898;SDS011;4988;49.238;6.698;2023-01-05T12:57:49;15.27;;;3.13;;
9898;SDS011;4988;49.238;6.698;2023-01-05T13:00:21;18.97;;;3.63;;
9898;SDS011;4988;49.238;6.698;2023-01-05T13:08:24;13.43;;;3.60;;
9898;SDS011;4988;49.238;6.698;2023-01-05T13:10:58;18.97;;;3.83;;
9898;SDS011;4988;49.238;6.698;2023-01-05T13:13:30;20.13;;;3.87;;
9898;SDS011;4988;49.238;6.698;2023-01-05T13:16:16;15.03;;;3.90;;
9898;SDS011;4988;49.238;6.698;2023-01-05T13:19:04;17.23;;;3.23;;
9898;SDS011;4988;49.238;6.698;2023-01-05T13:21:38;11.40;;;2.80;;
9898;SDS011;4988;49.238;6.698;2023-01-05T13:24:08;20.57;;;4.43;;
9898;SDS011;4988;49.238;6.698;2023-01-05T13:26:47;24.07;;;4.83;;
9898;SDS011;4988;49.238;6.698;2023-01-05T13:29:19;21.60;;;4.03;;
9898;SDS011;4988;49.238;6.698;2023-01-05T13:34:29;21.13;;;4.53;;
9898;SDS011;4988;49.238;6.698;2023-01-05T13:50:25;16.23;;;3.97;;
9898;SDS011;4988;49.238;6.698;2023-01-05T13:53:15;26.70;;;4.90;;
9898;SDS011;4988;49.238;6.698;2023-01-05T13:56:04;23.37;;;4.50;;
9898;SDS011;4988;49.238;6.698;2023-01-05T13:58:39;18.53;;;3.27;;
9898;SDS011;4988;49.238;6.698;2023-01-05T14:01:09;19.90;;;4.33;;
9898;SDS011;4988;49.238;6.698;2023-01-05T14:03:45;24.47;;;4.03;;
9898;SDS011;4988;49.238;6.698;2023-01-05T14:06:14;20.50;;;4.37;;
9898;SDS011;4988;49.238;6.698;2023-01-05T14:09:02;20.63;;;4.13;;
9898;SDS011;4988;49.238;6.698;2023-01-05T14:11:30;22.67;;;4.53;;
9898;SDS011;4988;49.238;6.698;2023-01-05T14:14:03;23.57;;;4.70;;
9898;SDS011;4988;49.238;6.698;2023-01-05T14:19:18;18.30;;;5.13;;
9898;SDS011;4988;49.238;6.698;2023-01-05T14:30:17;20.50;;;4.90;;
9898;SDS011;4988;49.238;6.698;2023-01-05T14:32:35;20.33;;;4.40;;
9898;SDS011;4988;49.238;6.698;2023-01-05T14:35:12;19.97;;;4.67;;
9898;SDS011;4988;49.238;6.698;2023-01-05T14:40:30;18.87;;;5.53;;
9898;SDS011;4988;49.238;6.698;2023-01-05T14:42:56;29.30;;;6.57;;
9898;SDS011;4988;49.238;6.698;2023-01-05T14:45:28;23.27;;;5.33;;
9898;SDS011;4988;49.238;6.698;2023-01-05T14:47:56;22.67;;;6.07;;
9898;SDS011;4988;49.238;6.698;2023-01-05T14:55:41;19.70;;;4.83;;
9898;SDS011;4988;49.238;6.698;2023-01-05T15:11:59;21.13;;;4.87;;
9898;SDS011;4988;49.238;6.698;2023-01-05T15:28:51;20.87;;;4.07;;
9898;SDS011;4988;49.238;6.698;2023-01-05T15:31:44;23.43;;;3.90;;
9898;SDS011;4988;49.238;6.698;2023-01-05T15:34:28;26.77;;;4.00;;
9898;SDS011;4988;49.238;6.698;2023-01-05T15:37:03;15.57;;;3.87;;
9898;SDS011;4988;49.238;6.698;2023-01-05T15:39:47;17.20;;;4.10;;
9898;SDS011;4988;49.238;6.698;2023-01-05T15:42:16;17.90;;;4.27;;
9898;SDS011;4988;49.238;6.698;2023-01-05T15:44:44;19.33;;;3.37;;
9898;SDS011;4988;49.238;6.698;2023-01-05T15:47:12;20.40;;;3.53;;
9898;SDS011;4988;49.238;6.698;2023-01-05T15:49:38;14.60;;;3.70;;
9898;SDS011;4988;49.238;6.698;2023-01-05T15:52:04;21.67;;;4.43;;
9898;SDS011;4988;49.238;6.698;2023-01-05T15:54:40;20.20;;;4.30;;
9898;SDS011;4988;49.238;6.698;2023-01-05T15:57:16;17.23;;;4.47;;
9898;SDS011;4988;49.238;6.698;2023-01-05T15:59:46;23.37;;;3.90;;
9898;SDS011;4988;49.238;6.698;2023-01-05T16:02:22;16.27;;;4.30;;
9898;SDS011;4988;49.238;6.698;2023-01-05T16:10:20;23.07;;;5.60;;
9898;SDS011;4988;49.238;6.698;2023-01-05T16:12:58;20.63;;;5.40;;
9898;SDS011;4988;49.238;6.698;2023-01-05T16:15:37;23.23;;;8.03;;
9898;SDS011;4988;49.238;6.698;2023-01-05T16:18:05;20.43;;;8.17;;
9898;SDS011;4988;49.238;6.698;2023-01-05T16:20:31;19.47;;;6.30;;
9898;SDS011;4988;49.238;6.698;2023-01-05T16:23:05;17.63;;;5.53;;
9898;SDS011;4988;49.238;6.698;2023-01-05T16:25:41;23.90;;;6.10;;
9898;SDS011;4988;49.238;6.698;2023-01-05T16:28:15;19.23;;;6.30;;
9898;SDS011;4988;49.238;6.698;2023-01-05T16:30:44;17.47;;;5.60;;
9898;SDS011;4988;49.238;6.698;2023-01-05T16:36:07;22.60;;;6.40;;
9898;SDS011;4988;49.238;6.698;2023-01-05T16:38:43;23.77;;;6.80;;
9898;SDS011;4988;49.238;6.698;2023-01-05T16:41:23;25.43;;;6.03;;
9898;SDS011;4988;49.238;6.698;2023-01-05T16:43:51;17.20;;;5.13;;
9898;SDS011;4988;49.238;6.698;2023-01-05T16:51:35;29.83;;;7.17;;
9898;SDS011;4988;49.238;6.698;2023-01-05T16:54:11;25.10;;;7.50;;
9898;SDS011;4988;49.238;6.698;2023-01-05T16:59:49;34.80;;;8.03;;
9898;SDS011;4988;49.238;6.698;2023-01-05T17:05:18;23.63;;;5.83;;
9898;SDS011;4988;49.238;6.698;2023-01-05T17:07:47;19.53;;;5.57;;
9898;SDS011;4988;49.238;6.698;2023-01-05T17:10:19;24.13;;;6.23;;
9898;SDS011;4988;49.238;6.698;2023-01-05T17:15:28;26.03;;;5.97;;
9898;SDS011;4988;49.238;6.698;2023-01-05T17:17:55;19.47;;;5.70;;
9898;SDS011;4988;49.238;6.698;2023-01-05T17:20:21;16.90;;;5.27;;
9898;SDS011;4988;49.238;6.698;2023-01-05T17:22:48;17.63;;;4.90;;
9898;SDS011;4988;49.238;6.698;2023-01-05T17:25:15;20.33;;;4.53;;
9898;SDS011;4988;49.238;6.698;2023-01-05T17:27:40;18.30;;;4.90;;
9898;SDS011;4988;49.238;6.698;2023-01-05T17:30:14;21.93;;;5.37;;
9898;SDS011;4988;49.238;6.698;2023-01-05T17:32:43;27.37;;;5.00;;
9898;SDS011;4988;49.238;6.698;2023-01-05T17:35:08;20.40;;;5.17;;
9898;SDS011;4988;49.238;6.698;2023-01-05T17:37:34;16.77;;;5.03;;
9898;SDS011;4988;49.238;6.698;2023-01-05T17:39:59;21.90;;;5.50;;
9898;SDS011;4988;49.238;6.698;2023-01-05T17:42:24;21.80;;;6.50;;
9898;SDS011;4988;49.238;6.698;2023-01-05T17:45:29;22.30;;;4.83;;
9898;SDS011;4988;49.238;6.698;2023-01-05T17:47:54;17.90;;;6.00;;
9898;SDS011;4988;49.238;6.698;2023-01-05T17:50:21;17.50;;;4.83;;
9898;SDS011;4988;49.238;6.698;2023-01-05T17:52:52;18.17;;;6.13;;
9898;SDS011;4988;49.238;6.698;2023-01-05T17:55:18;19.70;;;5.17;;
9898;SDS011;4988;49.238;6.698;2023-01-05T17:57:44;20.57;;;5.63;;
9898;SDS011;4988;49.238;6.698;2023-01-05T18:00:10;20.57;;;5.10;;
9898;SDS011;4988;49.238;6.698;2023-01-05T18:02:38;19.47;;;5.83;;
9898;SDS011;4988;49.238;6.698;2023-01-05T18:05:04;27.60;;;5.87;;
9898;SDS011;4988;49.238;6.698;2023-01-05T18:07:30;19.40;;;5.27;;
9898;SDS011;4988;49.238;6.698;2023-01-05T18:09:57;17.47;;;5.63;;
9898;SDS011;4988;49.238;6.698;2023-01-05T18:12:23;25.33;;;6.50;;
9898;SDS011;4988;49.238;6.698;2023-01-05T18:14:49;21.00;;;6.30;;
9898;SDS011;4988;49.238;6.698;2023-01-05T18:17:15;19.03;;;6.23;;
9898;SDS011;4988;49.238;6.698;2023-01-05T18:19:42;19.37;;;6.10;;
9898;SDS011;4988;49.238;6.698;2023-01-05T18:22:08;18.30;;;6.57;;
9898;SDS011;4988;49.238;6.698;2023-01-05T18:24:34;17.23;;;6.77;;
9898;SDS011;4988;49.238;6.698;2023-01-05T18:27:00;20.93;;;6.57;;